sensor_id;sensor_type;location;lat;lon;timestamp;P1;durP1;ratioP1;P2;durP2;ratioP2
836;SDS011;400;53.550;9.932;2023-12-22T00:02:16;16.77;;;4.47;;
836;SDS011;400;53.550;9.932;2023-12-22T00:04:43;17.42;;;3.88;;
836;SDS011;400;53.550;9.932;2023-12-22T00:07:10;17.30;;;4.20;;
836;SDS011;400;53.550;9.932;2023-12-22T00:09:37;19.40;;;4.30;;
836;SDS011;400;53.550;9.932;2023-12-22T00:12:04;14.10;;;3.97;;
836;SDS011;400;53.550;9.932;2023-12-22T00:14:31;14.93;;;4.22;;
836;SDS011;400;53.550;9.932;2023-12-22T00:17:00;17.30;;;4.35;;
836;SDS011;400;53.550;9.932;2023-12-22T00:19:27;11.50;;;3.90;;
836;SDS011;400;53.550;9.932;2023-12-22T00:21:53;15.38;;;4.80;;
836;SDS011;400;53.550;9.932;2023-12-22T00:24:20;10.95;;;3.45;;
836;SDS011;400;53.550;9.932;2023-12-22T00:26:47;12.95;;;3.80;;
836;SDS011;400;53.550;9.932;2023-12-22T00:29:14;16.00;;;4.38;;
836;SDS011;400;53.550;9.932;2023-12-22T00:31:41;8.82;;;4.20;;
836;SDS011;400;53.550;9.932;2023-12-22T00:34:09;16.98;;;4.13;;
836;SDS011;400;53.550;9.932;2023-12-22T00:36:36;17.45;;;3.95;;
836;SDS011;400;53.550;9.932;2023-12-22T00:39:03;16.98;;;5.63;;
836;SDS011;400;53.550;9.932;2023-12-22T00:41:30;10.05;;;3.50;;
836;SDS011;400;53.550;9.932;2023-12-22T00:43:57;10.80;;;3.80;;
836;SDS011;400;53.550;9.932;2023-12-22T00:46:24;15.02;;;3.75;;
836;SDS011;400;53.550;9.932;2023-12-22T00:48:51;12.95;;;4.00;;
836;SDS011;400;53.550;9.932;2023-12-22T00:51:19;17.70;;;5.32;;
836;SDS011;400;53.550;9.932;2023-12-22T00:53:46;11.55;;;4.50;;
836;SDS011;400;53.550;9.932;2023-12-22T00:56:13;15.85;;;4.28;;
836;SDS011;400;53.550;9.932;2023-12-22T00:58:40;10.05;;;3.60;;
836;SDS011;400;53.550;9.932;2023-12-22T01:01:07;17.27;;;4.50;;
836;SDS011;400;53.550;9.932;2023-12-22T01:03:35;7.88;;;3.50;;
836;SDS011;400;53.550;9.932;2023-12-22T01:06:02;15.95;;;3.90;;
836;SDS011;400;53.550;9.932;2023-12-22T01:08:31;6.15;;;2.92;;
836;SDS011;400;53.550;9.932;2023-12-22T01:10:58;9.60;;;2.92;;
836;SDS011;400;53.550;9.932;2023-12-22T01:13:25;4.70;;;1.75;;
836;SDS011;400;53.550;9.932;2023-12-22T01:15:51;8.32;;;1.70;;
836;SDS011;400;53.550;9.932;2023-12-22T01:18:18;4.93;;;1.58;;
836;SDS011;400;53.550;9.932;2023-12-22T01:20:45;5.90;;;1.63;;
836;SDS011;400;53.550;9.932;2023-12-22T01:23:12;6.68;;;1.95;;
836;SDS011;400;53.550;9.932;2023-12-22T01:25:40;4.15;;;1.63;;
836;SDS011;400;53.550;9.932;2023-12-22T01:28:07;5.55;;;1.90;;
836;SDS011;400;53.550;9.932;2023-12-22T01:30:34;6.38;;;2.78;;
836;SDS011;400;53.550;9.932;2023-12-22T01:33:00;6.22;;;3.05;;
836;SDS011;400;53.550;9.932;2023-12-22T01:35:27;3.97;;;1.60;;
836;SDS011;400;53.550;9.932;2023-12-22T01:37:54;2.88;;;0.90;;
836;SDS011;400;53.550;9.932;2023-12-22T01:40:22;3.63;;;1.10;;
836;SDS011;400;53.550;9.932;2023-12-22T01:42:50;7.70;;;0.98;;
836;SDS011;400;53.550;9.932;2023-12-22T01:45:17;3.70;;;1.15;;
836;SDS011;400;53.550;9.932;2023-12-22T01:47:44;1.98;;;0.85;;
836;SDS011;400;53.550;9.932;2023-12-22T01:50:12;2.25;;;0.63;;
836;SDS011;400;53.550;9.932;2023-12-22T01:52:41;1.25;;;0.50;;
836;SDS011;400;53.550;9.932;2023-12-22T01:55:10;4.18;;;0.90;;
836;SDS011;400;53.550;9.932;2023-12-22T01:57:39;1.85;;;0.80;;
836;SDS011;400;53.550;9.932;2023-12-22T02:00:09;2.95;;;1.75;;
836;SDS011;400;53.550;9.932;2023-12-22T02:02:37;4.40;;;1.20;;
836;SDS011;400;53.550;9.932;2023-12-22T02:05:07;5.65;;;1.15;;
836;SDS011;400;53.550;9.932;2023-12-22T02:07:36;3.55;;;1.25;;
836;SDS011;400;53.550;9.932;2023-12-22T02:10:05;2.40;;;1.10;;
836;SDS011;400;53.550;9.932;2023-12-22T02:12:33;4.15;;;1.50;;
836;SDS011;400;53.550;9.932;2023-12-22T02:15:00;6.68;;;1.27;;
836;SDS011;400;53.550;9.932;2023-12-22T02:17:32;5.25;;;1.52;;
836;SDS011;400;53.550;9.932;2023-12-22T02:20:04;5.95;;;1.35;;
836;SDS011;400;53.550;9.932;2023-12-22T02:22:34;5.80;;;1.50;;
836;SDS011;400;53.550;9.932;2023-12-22T02:25:01;5.88;;;1.63;;
836;SDS011;400;53.550;9.932;2023-12-22T02:27:30;4.50;;;1.35;;
836;SDS011;400;53.550;9.932;2023-12-22T02:30:06;11.82;;;2.05;;
836;SDS011;400;53.550;9.932;2023-12-22T02:32:36;4.97;;;1.15;;
836;SDS011;400;53.550;9.932;2023-12-22T02:35:06;7.35;;;1.70;;
836;SDS011;400;53.550;9.932;2023-12-22T02:37:37;5.70;;;2.40;;
836;SDS011;400;53.550;9.932;2023-12-22T02:40:07;7.60;;;1.40;;
836;SDS011;400;53.550;9.932;2023-12-22T02:42:34;2.72;;;1.33;;
836;SDS011;400;53.550;9.932;2023-12-22T02:45:03;4.55;;;2.15;;
836;SDS011;400;53.550;9.932;2023-12-22T02:47:30;5.15;;;1.40;;
836;SDS011;400;53.550;9.932;2023-12-22T02:49:58;6.05;;;1.73;;
836;SDS011;400;53.550;9.932;2023-12-22T02:52:25;5.47;;;2.45;;
836;SDS011;400;53.550;9.932;2023-12-22T02:54:53;4.22;;;1.17;;
836;SDS011;400;53.550;9.932;2023-12-22T02:57:20;4.72;;;1.60;;
836;SDS011;400;53.550;9.932;2023-12-22T02:59:47;3.25;;;1.13;;
836;SDS011;400;53.550;9.932;2023-12-22T03:02:14;2.70;;;0.85;;
836;SDS011;400;53.550;9.932;2023-12-22T03:04:41;3.00;;;1.25;;
836;SDS011;400;53.550;9.932;2023-12-22T03:07:08;2.38;;;0.45;;
836;SDS011;400;53.550;9.932;2023-12-22T03:09:34;1.38;;;0.50;;
836;SDS011;400;53.550;9.932;2023-12-22T03:12:03;5.15;;;0.65;;
836;SDS011;400;53.550;9.932;2023-12-22T03:14:31;0.50;;;0.43;;
836;SDS011;400;53.550;9.932;2023-12-22T03:16:58;2.75;;;0.55;;
836;SDS011;400;53.550;9.932;2023-12-22T03:19:25;1.45;;;0.65;;
836;SDS011;400;53.550;9.932;2023-12-22T03:21:52;2.78;;;0.50;;
836;SDS011;400;53.550;9.932;2023-12-22T03:24:19;1.70;;;0.60;;
836;SDS011;400;53.550;9.932;2023-12-22T03:26:47;1.10;;;0.52;;
836;SDS011;400;53.550;9.932;2023-12-22T03:29:15;0.63;;;0.45;;
836;SDS011;400;53.550;9.932;2023-12-22T03:31:43;0.80;;;0.40;;
836;SDS011;400;53.550;9.932;2023-12-22T03:34:10;2.00;;;0.80;;
836;SDS011;400;53.550;9.932;2023-12-22T03:36:37;2.53;;;0.75;;
836;SDS011;400;53.550;9.932;2023-12-22T03:39:04;5.00;;;1.10;;
836;SDS011;400;53.550;9.932;2023-12-22T03:41:31;3.60;;;0.75;;
836;SDS011;400;53.550;9.932;2023-12-22T03:43:59;1.88;;;0.57;;
836;SDS011;400;53.550;9.932;2023-12-22T03:46:29;3.53;;;0.60;;
836;SDS011;400;53.550;9.932;2023-12-22T03:48:55;2.50;;;0.77;;
836;SDS011;400;53.550;9.932;2023-12-22T03:51:22;6.90;;;1.30;;
836;SDS011;400;53.550;9.932;2023-12-22T03:53:49;2.97;;;0.70;;
836;SDS011;400;53.550;9.932;2023-12-22T03:56:16;4.32;;;1.33;;
836;SDS011;400;53.550;9.932;2023-12-22T03:58:44;5.10;;;0.75;;
836;SDS011;400;53.550;9.932;2023-12-22T04:01:13;2.55;;;1.00;;
836;SDS011;400;53.550;9.932;2023-12-22T04:03:41;2.38;;;1.05;;
836;SDS011;400;53.550;9.932;2023-12-22T04:06:08;2.90;;;1.25;;
836;SDS011;400;53.550;9.932;2023-12-22T04:08:35;2.83;;;1.40;;
836;SDS011;400;53.550;9.932;2023-12-22T04:11:02;6.90;;;3.38;;
836;SDS011;400;53.550;9.932;2023-12-22T04:13:29;4.38;;;1.52;;
836;SDS011;400;53.550;9.932;2023-12-22T04:15:56;10.10;;;2.05;;
836;SDS011;400;53.550;9.932;2023-12-22T04:18:23;4.63;;;1.60;;
836;SDS011;400;53.550;9.932;2023-12-22T04:20:52;6.65;;;1.90;;
836;SDS011;400;53.550;9.932;2023-12-22T04:23:20;1.77;;;1.05;;
836;SDS011;400;53.550;9.932;2023-12-22T04:25:47;9.45;;;1.42;;
836;SDS011;400;53.550;9.932;2023-12-22T04:28:14;3.95;;;1.55;;
836;SDS011;400;53.550;9.932;2023-12-22T04:30:41;8.30;;;1.90;;
836;SDS011;400;53.550;9.932;2023-12-22T04:33:08;9.52;;;1.50;;
836;SDS011;400;53.550;9.932;2023-12-22T04:35:35;14.73;;;1.70;;
836;SDS011;400;53.550;9.932;2023-12-22T04:38:03;12.15;;;2.13;;
836;SDS011;400;53.550;9.932;2023-12-22T04:40:30;5.82;;;1.35;;
836;SDS011;400;53.550;9.932;2023-12-22T04:42:58;11.57;;;1.70;;
836;SDS011;400;53.550;9.932;2023-12-22T04:45:25;7.90;;;1.75;;
836;SDS011;400;53.550;9.932;2023-12-22T04:47:52;2.92;;;1.52;;
836;SDS011;400;53.550;9.932;2023-12-22T04:50:19;4.57;;;1.70;;
836;SDS011;400;53.550;9.932;2023-12-22T04:52:46;2.22;;;1.15;;
836;SDS011;400;53.550;9.932;2023-12-22T04:55:14;8.00;;;4.00;;
836;SDS011;400;53.550;9.932;2023-12-22T04:57:41;2.55;;;0.95;;
836;SDS011;400;53.550;9.932;2023-12-22T05:00:08;3.03;;;1.50;;
836;SDS011;400;53.550;9.932;2023-12-22T05:02:35;8.25;;;2.40;;
836;SDS011;400;53.550;9.932;2023-12-22T05:05:02;4.00;;;1.30;;
836;SDS011;400;53.550;9.932;2023-12-22T05:07:29;6.88;;;1.50;;
836;SDS011;400;53.550;9.932;2023-12-22T05:09:56;6.18;;;1.10;;
836;SDS011;400;53.550;9.932;2023-12-22T05:12:24;5.50;;;1.23;;
836;SDS011;400;53.550;9.932;2023-12-22T05:14:51;2.08;;;0.82;;
836;SDS011;400;53.550;9.932;2023-12-22T05:17:19;5.63;;;1.23;;
836;SDS011;400;53.550;9.932;2023-12-22T05:19:46;2.35;;;0.73;;
836;SDS011;400;53.550;9.932;2023-12-22T05:22:13;5.07;;;0.88;;
836;SDS011;400;53.550;9.932;2023-12-22T05:24:40;2.17;;;1.00;;
836;SDS011;400;53.550;9.932;2023-12-22T05:27:06;4.80;;;1.67;;
836;SDS011;400;53.550;9.932;2023-12-22T05:29:35;6.22;;;1.70;;
836;SDS011;400;53.550;9.932;2023-12-22T05:32:02;4.57;;;1.35;;
836;SDS011;400;53.550;9.932;2023-12-22T05:34:29;5.30;;;1.48;;
836;SDS011;400;53.550;9.932;2023-12-22T05:36:56;6.22;;;2.08;;
836;SDS011;400;53.550;9.932;2023-12-22T05:39:23;6.07;;;1.38;;
836;SDS011;400;53.550;9.932;2023-12-22T05:41:50;5.00;;;1.23;;
836;SDS011;400;53.550;9.932;2023-12-22T05:44:17;5.68;;;0.75;;
836;SDS011;400;53.550;9.932;2023-12-22T05:46:45;0.77;;;0.55;;
836;SDS011;400;53.550;9.932;2023-12-22T05:49:12;4.28;;;0.90;;
836;SDS011;400;53.550;9.932;2023-12-22T05:51:39;4.30;;;1.42;;
836;SDS011;400;53.550;9.932;2023-12-22T05:54:06;2.30;;;0.88;;
836;SDS011;400;53.550;9.932;2023-12-22T05:56:33;4.93;;;1.33;;
836;SDS011;400;53.550;9.932;2023-12-22T05:59:00;3.78;;;1.00;;
836;SDS011;400;53.550;9.932;2023-12-22T06:01:28;8.68;;;1.60;;
836;SDS011;400;53.550;9.932;2023-12-22T06:03:59;3.25;;;0.85;;
836;SDS011;400;53.550;9.932;2023-12-22T06:06:27;11.32;;;1.20;;
836;SDS011;400;53.550;9.932;2023-12-22T06:08:55;2.38;;;0.55;;
836;SDS011;400;53.550;9.932;2023-12-22T06:11:22;2.10;;;0.95;;
836;SDS011;400;53.550;9.932;2023-12-22T06:13:49;3.72;;;1.10;;
836;SDS011;400;53.550;9.932;2023-12-22T06:16:15;3.53;;;0.82;;
836;SDS011;400;53.550;9.932;2023-12-22T06:18:43;5.43;;;1.02;;
836;SDS011;400;53.550;9.932;2023-12-22T06:21:11;3.05;;;1.00;;
836;SDS011;400;53.550;9.932;2023-12-22T06:23:39;3.53;;;1.10;;
836;SDS011;400;53.550;9.932;2023-12-22T06:26:09;7.60;;;1.40;;
836;SDS011;400;53.550;9.932;2023-12-22T06:28:37;7.32;;;1.70;;
836;SDS011;400;53.550;9.932;2023-12-22T06:31:06;10.15;;;2.03;;
836;SDS011;400;53.550;9.932;2023-12-22T06:33:35;5.80;;;1.63;;
836;SDS011;400;53.550;9.932;2023-12-22T06:36:02;10.45;;;2.17;;
836;SDS011;400;53.550;9.932;2023-12-22T06:38:31;24.00;;;4.82;;
836;SDS011;400;53.550;9.932;2023-12-22T06:40:58;6.15;;;2.58;;
836;SDS011;400;53.550;9.932;2023-12-22T06:43:26;8.80;;;2.45;;
836;SDS011;400;53.550;9.932;2023-12-22T06:45:59;11.65;;;2.42;;
836;SDS011;400;53.550;9.932;2023-12-22T06:48:29;11.30;;;3.22;;
836;SDS011;400;53.550;9.932;2023-12-22T06:51:03;10.93;;;2.90;;
836;SDS011;400;53.550;9.932;2023-12-22T06:53:32;15.63;;;3.30;;
836;SDS011;400;53.550;9.932;2023-12-22T06:55:59;20.70;;;4.75;;
836;SDS011;400;53.550;9.932;2023-12-22T06:58:26;9.55;;;2.50;;
836;SDS011;400;53.550;9.932;2023-12-22T07:00:57;8.50;;;2.40;;
836;SDS011;400;53.550;9.932;2023-12-22T07:03:24;13.57;;;4.20;;
836;SDS011;400;53.550;9.932;2023-12-22T07:05:50;10.93;;;2.13;;
836;SDS011;400;53.550;9.932;2023-12-22T07:08:17;15.25;;;2.83;;
836;SDS011;400;53.550;9.932;2023-12-22T07:10:45;11.75;;;3.00;;
836;SDS011;400;53.550;9.932;2023-12-22T07:13:13;6.38;;;2.05;;
836;SDS011;400;53.550;9.932;2023-12-22T07:15:44;11.52;;;2.22;;
836;SDS011;400;53.550;9.932;2023-12-22T07:18:15;8.10;;;3.67;;
836;SDS011;400;53.550;9.932;2023-12-22T07:20:42;5.85;;;2.30;;
836;SDS011;400;53.550;9.932;2023-12-22T07:23:09;7.80;;;2.30;;
836;SDS011;400;53.550;9.932;2023-12-22T07:25:36;9.38;;;2.88;;
836;SDS011;400;53.550;9.932;2023-12-22T07:28:06;12.02;;;2.65;;
836;SDS011;400;53.550;9.932;2023-12-22T07:30:33;9.93;;;2.20;;
836;SDS011;400;53.550;9.932;2023-12-22T07:32:59;8.88;;;1.65;;
836;SDS011;400;53.550;9.932;2023-12-22T07:35:26;5.57;;;1.52;;
836;SDS011;400;53.550;9.932;2023-12-22T07:37:54;5.32;;;1.88;;
836;SDS011;400;53.550;9.932;2023-12-22T07:40:21;8.40;;;2.53;;
836;SDS011;400;53.550;9.932;2023-12-22T07:42:48;16.05;;;2.58;;
836;SDS011;400;53.550;9.932;2023-12-22T07:45:17;6.47;;;2.33;;
836;SDS011;400;53.550;9.932;2023-12-22T07:47:43;9.23;;;2.03;;
836;SDS011;400;53.550;9.932;2023-12-22T07:50:11;6.25;;;1.30;;
836;SDS011;400;53.550;9.932;2023-12-22T07:52:38;11.48;;;2.00;;
836;SDS011;400;53.550;9.932;2023-12-22T07:55:05;7.25;;;2.03;;
836;SDS011;400;53.550;9.932;2023-12-22T07:57:34;5.15;;;1.90;;
836;SDS011;400;53.550;9.932;2023-12-22T08:00:01;8.63;;;1.85;;
836;SDS011;400;53.550;9.932;2023-12-22T08:02:30;10.73;;;1.65;;
836;SDS011;400;53.550;9.932;2023-12-22T08:04:57;3.58;;;1.15;;
836;SDS011;400;53.550;9.932;2023-12-22T08:07:24;9.30;;;1.70;;
836;SDS011;400;53.550;9.932;2023-12-22T08:09:51;10.00;;;2.17;;
836;SDS011;400;53.550;9.932;2023-12-22T08:12:18;10.50;;;4.05;;
836;SDS011;400;53.550;9.932;2023-12-22T08:14:45;9.68;;;2.55;;
836;SDS011;400;53.550;9.932;2023-12-22T08:17:14;4.78;;;2.10;;
836;SDS011;400;53.550;9.932;2023-12-22T08:19:42;3.75;;;2.15;;
836;SDS011;400;53.550;9.932;2023-12-22T08:22:09;7.22;;;2.70;;
836;SDS011;400;53.550;9.932;2023-12-22T08:24:40;2.10;;;1.05;;
836;SDS011;400;53.550;9.932;2023-12-22T08:27:09;3.05;;;1.15;;
836;SDS011;400;53.550;9.932;2023-12-22T08:29:36;4.47;;;1.92;;
836;SDS011;400;53.550;9.932;2023-12-22T08:32:04;8.18;;;1.92;;
836;SDS011;400;53.550;9.932;2023-12-22T08:34:31;8.43;;;2.20;;
836;SDS011;400;53.550;9.932;2023-12-22T08:37:01;15.18;;;2.35;;
836;SDS011;400;53.550;9.932;2023-12-22T08:39:33;15.63;;;2.92;;
836;SDS011;400;53.550;9.932;2023-12-22T08:42:04;12.80;;;3.25;;
836;SDS011;400;53.550;9.932;2023-12-22T08:44:39;8.32;;;2.20;;
836;SDS011;400;53.550;9.932;2023-12-22T08:47:06;7.70;;;3.13;;
836;SDS011;400;53.550;9.932;2023-12-22T08:49:33;9.02;;;2.08;;
836;SDS011;400;53.550;9.932;2023-12-22T08:52:01;6.10;;;2.03;;
836;SDS011;400;53.550;9.932;2023-12-22T08:54:29;5.72;;;1.60;;
836;SDS011;400;53.550;9.932;2023-12-22T08:56:55;4.90;;;1.50;;
836;SDS011;400;53.550;9.932;2023-12-22T08:59:22;4.93;;;1.38;;
836;SDS011;400;53.550;9.932;2023-12-22T09:01:49;6.78;;;1.42;;
836;SDS011;400;53.550;9.932;2023-12-22T09:04:16;1.05;;;0.60;;
836;SDS011;400;53.550;9.932;2023-12-22T09:06:43;2.40;;;0.70;;
836;SDS011;400;53.550;9.932;2023-12-22T09:09:13;4.13;;;1.35;;
836;SDS011;400;53.550;9.932;2023-12-22T09:11:42;2.83;;;1.20;;
836;SDS011;400;53.550;9.932;2023-12-22T09:14:09;3.78;;;0.60;;
836;SDS011;400;53.550;9.932;2023-12-22T09:16:36;6.32;;;1.10;;
836;SDS011;400;53.550;9.932;2023-12-22T09:19:05;4.10;;;1.20;;
836;SDS011;400;53.550;9.932;2023-12-22T09:21:32;3.17;;;1.20;;
836;SDS011;400;53.550;9.932;2023-12-22T09:23:59;1.70;;;0.63;;
836;SDS011;400;53.550;9.932;2023-12-22T09:26:27;3.75;;;1.00;;
836;SDS011;400;53.550;9.932;2023-12-22T09:28:54;6.60;;;1.48;;
836;SDS011;400;53.550;9.932;2023-12-22T09:31:22;8.88;;;1.67;;
836;SDS011;400;53.550;9.932;2023-12-22T09:33:53;10.23;;;1.70;;
836;SDS011;400;53.550;9.932;2023-12-22T09:36:20;4.53;;;1.13;;
836;SDS011;400;53.550;9.932;2023-12-22T09:38:46;5.60;;;1.27;;
836;SDS011;400;53.550;9.932;2023-12-22T09:41:13;4.57;;;1.55;;
836;SDS011;400;53.550;9.932;2023-12-22T09:43:42;7.57;;;1.60;;
836;SDS011;400;53.550;9.932;2023-12-22T09:46:13;3.58;;;1.30;;
836;SDS011;400;53.550;9.932;2023-12-22T09:48:40;6.57;;;1.63;;
836;SDS011;400;53.550;9.932;2023-12-22T09:51:09;3.50;;;1.70;;
836;SDS011;400;53.550;9.932;2023-12-22T09:53:38;4.45;;;1.20;;
836;SDS011;400;53.550;9.932;2023-12-22T09:56:06;7.50;;;1.13;;
836;SDS011;400;53.550;9.932;2023-12-22T09:58:38;7.30;;;1.90;;
836;SDS011;400;53.550;9.932;2023-12-22T10:01:11;7.03;;;2.15;;
836;SDS011;400;53.550;9.932;2023-12-22T10:03:38;5.45;;;1.42;;
836;SDS011;400;53.550;9.932;2023-12-22T10:06:09;8.18;;;2.35;;
836;SDS011;400;53.550;9.932;2023-12-22T10:08:37;12.45;;;2.60;;
836;SDS011;400;53.550;9.932;2023-12-22T10:11:06;10.75;;;1.95;;
836;SDS011;400;53.550;9.932;2023-12-22T10:13:36;4.15;;;1.50;;
836;SDS011;400;53.550;9.932;2023-12-22T10:16:06;7.13;;;2.47;;
836;SDS011;400;53.550;9.932;2023-12-22T10:18:34;7.70;;;1.70;;
836;SDS011;400;53.550;9.932;2023-12-22T10:21:02;6.75;;;2.17;;
836;SDS011;400;53.550;9.932;2023-12-22T10:23:30;11.35;;;2.60;;
836;SDS011;400;53.550;9.932;2023-12-22T10:25:58;7.65;;;2.63;;
836;SDS011;400;53.550;9.932;2023-12-22T10:28:27;5.25;;;1.92;;
836;SDS011;400;53.550;9.932;2023-12-22T10:30:54;10.63;;;2.10;;
836;SDS011;400;53.550;9.932;2023-12-22T10:33:31;8.85;;;3.40;;
836;SDS011;400;53.550;9.932;2023-12-22T10:35:59;8.05;;;3.55;;
836;SDS011;400;53.550;9.932;2023-12-22T10:38:27;8.75;;;3.05;;
836;SDS011;400;53.550;9.932;2023-12-22T10:40:59;10.15;;;2.20;;
836;SDS011;400;53.550;9.932;2023-12-22T10:43:29;8.68;;;2.25;;
836;SDS011;400;53.550;9.932;2023-12-22T10:46:03;7.30;;;2.72;;
836;SDS011;400;53.550;9.932;2023-12-22T10:48:30;9.25;;;2.53;;
836;SDS011;400;53.550;9.932;2023-12-22T10:50:57;6.93;;;2.10;;
836;SDS011;400;53.550;9.932;2023-12-22T10:53:28;9.20;;;1.90;;
836;SDS011;400;53.550;9.932;2023-12-22T10:55:56;6.50;;;1.90;;
836;SDS011;400;53.550;9.932;2023-12-22T10:58:26;13.63;;;3.17;;
836;SDS011;400;53.550;9.932;2023-12-22T11:01:03;12.13;;;2.50;;
836;SDS011;400;53.550;9.932;2023-12-22T11:03:38;13.00;;;3.22;;
836;SDS011;400;53.550;9.932;2023-12-22T11:06:12;8.38;;;2.30;;
836;SDS011;400;53.550;9.932;2023-12-22T11:08:42;7.03;;;2.95;;
836;SDS011;400;53.550;9.932;2023-12-22T11:11:27;6.78;;;2.40;;
836;SDS011;400;53.550;9.932;2023-12-22T11:13:59;7.25;;;2.20;;
836;SDS011;400;53.550;9.932;2023-12-22T11:16:30;6.25;;;1.75;;
836;SDS011;400;53.550;9.932;2023-12-22T11:19:03;11.15;;;2.20;;
836;SDS011;400;53.550;9.932;2023-12-22T11:21:38;8.68;;;3.75;;
836;SDS011;400;53.550;9.932;2023-12-22T11:24:12;3.85;;;1.52;;
836;SDS011;400;53.550;9.932;2023-12-22T11:26:44;5.00;;;1.10;;
836;SDS011;400;53.550;9.932;2023-12-22T11:29:15;4.07;;;0.95;;
836;SDS011;400;53.550;9.932;2023-12-22T11:31:45;8.13;;;2.13;;
836;SDS011;400;53.550;9.932;2023-12-22T11:34:16;5.03;;;1.25;;
836;SDS011;400;53.550;9.932;2023-12-22T11:36:46;2.20;;;1.00;;
836;SDS011;400;53.550;9.932;2023-12-22T11:39:15;5.70;;;1.83;;
836;SDS011;400;53.550;9.932;2023-12-22T11:41:49;6.13;;;1.73;;
836;SDS011;400;53.550;9.932;2023-12-22T11:44:24;6.25;;;1.88;;
836;SDS011;400;53.550;9.932;2023-12-22T11:47:03;7.45;;;1.40;;
836;SDS011;400;53.550;9.932;2023-12-22T11:49:35;5.22;;;1.67;;
836;SDS011;400;53.550;9.932;2023-12-22T11:52:16;5.75;;;1.90;;
836;SDS011;400;53.550;9.932;2023-12-22T11:54:48;5.03;;;2.10;;
836;SDS011;400;53.550;9.932;2023-12-22T11:57:29;6.28;;;1.92;;
836;SDS011;400;53.550;9.932;2023-12-22T12:00:01;6.70;;;1.67;;
836;SDS011;400;53.550;9.932;2023-12-22T12:02:34;6.85;;;1.60;;
836;SDS011;400;53.550;9.932;2023-12-22T12:05:07;12.02;;;3.20;;
836;SDS011;400;53.550;9.932;2023-12-22T12:07:42;6.20;;;1.98;;
836;SDS011;400;53.550;9.932;2023-12-22T12:10:10;10.10;;;2.55;;
836;SDS011;400;53.550;9.932;2023-12-22T12:12:39;17.50;;;8.27;;
836;SDS011;400;53.550;9.932;2023-12-22T12:15:07;8.48;;;2.10;;
836;SDS011;400;53.550;9.932;2023-12-22T12:17:38;13.20;;;3.15;;
836;SDS011;400;53.550;9.932;2023-12-22T12:20:07;9.88;;;2.78;;
836;SDS011;400;53.550;9.932;2023-12-22T12:22:38;7.28;;;2.80;;
836;SDS011;400;53.550;9.932;2023-12-22T12:25:12;6.93;;;1.92;;
836;SDS011;400;53.550;9.932;2023-12-22T12:27:43;4.20;;;1.70;;
836;SDS011;400;53.550;9.932;2023-12-22T12:30:10;10.23;;;3.38;;
836;SDS011;400;53.550;9.932;2023-12-22T12:32:41;7.35;;;3.65;;
836;SDS011;400;53.550;9.932;2023-12-22T12:35:10;6.65;;;2.00;;
836;SDS011;400;53.550;9.932;2023-12-22T12:37:37;8.77;;;2.20;;
836;SDS011;400;53.550;9.932;2023-12-22T12:40:06;4.75;;;1.95;;
836;SDS011;400;53.550;9.932;2023-12-22T12:42:37;6.57;;;1.73;;
836;SDS011;400;53.550;9.932;2023-12-22T12:45:06;16.08;;;3.25;;
836;SDS011;400;53.550;9.932;2023-12-22T12:47:38;10.25;;;3.28;;
836;SDS011;400;53.550;9.932;2023-12-22T12:50:07;6.47;;;2.30;;
836;SDS011;400;53.550;9.932;2023-12-22T12:52:36;10.52;;;2.85;;
836;SDS011;400;53.550;9.932;2023-12-22T12:55:04;12.48;;;3.05;;
836;SDS011;400;53.550;9.932;2023-12-22T12:57:32;9.27;;;2.58;;
836;SDS011;400;53.550;9.932;2023-12-22T13:00:00;9.55;;;2.40;;
836;SDS011;400;53.550;9.932;2023-12-22T13:02:28;9.27;;;2.30;;
836;SDS011;400;53.550;9.932;2023-12-22T13:05:04;11.18;;;3.10;;
836;SDS011;400;53.550;9.932;2023-12-22T13:07:36;7.50;;;2.40;;
836;SDS011;400;53.550;9.932;2023-12-22T13:10:04;13.95;;;3.63;;
836;SDS011;400;53.550;9.932;2023-12-22T13:12:32;10.55;;;2.88;;
836;SDS011;400;53.550;9.932;2023-12-22T13:15:03;8.38;;;2.55;;
836;SDS011;400;53.550;9.932;2023-12-22T13:17:30;11.50;;;4.55;;
836;SDS011;400;53.550;9.932;2023-12-22T13:19:57;9.45;;;2.95;;
836;SDS011;400;53.550;9.932;2023-12-22T13:22:27;8.32;;;2.33;;
836;SDS011;400;53.550;9.932;2023-12-22T13:24:59;6.38;;;1.60;;
836;SDS011;400;53.550;9.932;2023-12-22T13:27:26;6.97;;;1.95;;
836;SDS011;400;53.550;9.932;2023-12-22T13:29:53;5.40;;;1.80;;
836;SDS011;400;53.550;9.932;2023-12-22T13:32:24;4.90;;;2.05;;
836;SDS011;400;53.550;9.932;2023-12-22T13:34:58;9.93;;;2.33;;
836;SDS011;400;53.550;9.932;2023-12-22T13:37:30;6.45;;;1.92;;
836;SDS011;400;53.550;9.932;2023-12-22T13:39:57;9.35;;;2.30;;
836;SDS011;400;53.550;9.932;2023-12-22T13:42:24;5.30;;;2.30;;
836;SDS011;400;53.550;9.932;2023-12-22T13:44:52;7.97;;;2.67;;
836;SDS011;400;53.550;9.932;2023-12-22T13:47:20;9.77;;;2.20;;
836;SDS011;400;53.550;9.932;2023-12-22T13:49:51;9.88;;;2.33;;
836;SDS011;400;53.550;9.932;2023-12-22T13:52:24;6.40;;;2.10;;
836;SDS011;400;53.550;9.932;2023-12-22T13:54:53;6.35;;;1.92;;
836;SDS011;400;53.550;9.932;2023-12-22T13:57:28;7.25;;;1.60;;
836;SDS011;400;53.550;9.932;2023-12-22T13:59:59;6.57;;;2.20;;
836;SDS011;400;53.550;9.932;2023-12-22T14:02:27;7.45;;;1.55;;
836;SDS011;400;53.550;9.932;2023-12-22T14:04:54;10.18;;;2.45;;
836;SDS011;400;53.550;9.932;2023-12-22T14:07:21;6.57;;;1.88;;
836;SDS011;400;53.550;9.932;2023-12-22T14:09:49;10.10;;;2.30;;
836;SDS011;400;53.550;9.932;2023-12-22T14:12:16;5.07;;;1.38;;
836;SDS011;400;53.550;9.932;2023-12-22T14:14:43;10.85;;;2.28;;
836;SDS011;400;53.550;9.932;2023-12-22T14:17:10;10.38;;;2.28;;
836;SDS011;400;53.550;9.932;2023-12-22T14:19:39;10.18;;;2.42;;
836;SDS011;400;53.550;9.932;2023-12-22T14:22:10;4.47;;;2.42;;
836;SDS011;400;53.550;9.932;2023-12-22T14:24:37;7.03;;;2.10;;
836;SDS011;400;53.550;9.932;2023-12-22T14:27:07;6.80;;;2.10;;
836;SDS011;400;53.550;9.932;2023-12-22T14:29:39;8.20;;;1.55;;
836;SDS011;400;53.550;9.932;2023-12-22T14:32:06;6.38;;;2.08;;
836;SDS011;400;53.550;9.932;2023-12-22T14:34:35;4.82;;;1.88;;
836;SDS011;400;53.550;9.932;2023-12-22T14:37:04;7.65;;;1.88;;
836;SDS011;400;53.550;9.932;2023-12-22T14:39:30;7.50;;;2.72;;
836;SDS011;400;53.550;9.932;2023-12-22T14:41:58;5.50;;;1.73;;
836;SDS011;400;53.550;9.932;2023-12-22T14:44:28;4.50;;;1.90;;
836;SDS011;400;53.550;9.932;2023-12-22T14:47:00;10.65;;;1.58;;
836;SDS011;400;53.550;9.932;2023-12-22T14:49:31;14.23;;;2.83;;
836;SDS011;400;53.550;9.932;2023-12-22T14:52:02;5.45;;;2.20;;
836;SDS011;400;53.550;9.932;2023-12-22T14:54:34;6.43;;;2.03;;
836;SDS011;400;53.550;9.932;2023-12-22T14:57:04;4.60;;;2.90;;
836;SDS011;400;53.550;9.932;2023-12-22T14:59:33;5.82;;;2.17;;
836;SDS011;400;53.550;9.932;2023-12-22T15:02:01;9.27;;;1.95;;
836;SDS011;400;53.550;9.932;2023-12-22T15:04:31;9.15;;;2.42;;
836;SDS011;400;53.550;9.932;2023-12-22T15:07:01;8.50;;;2.45;;
836;SDS011;400;53.550;9.932;2023-12-22T15:09:31;6.35;;;1.45;;
836;SDS011;400;53.550;9.932;2023-12-22T15:11:58;6.15;;;2.00;;
836;SDS011;400;53.550;9.932;2023-12-22T15:14:25;4.00;;;1.73;;
836;SDS011;400;53.550;9.932;2023-12-22T15:16:52;8.15;;;1.90;;
836;SDS011;400;53.550;9.932;2023-12-22T15:19:23;5.22;;;1.48;;
836;SDS011;400;53.550;9.932;2023-12-22T15:21:51;2.53;;;1.05;;
836;SDS011;400;53.550;9.932;2023-12-22T15:24:19;6.30;;;1.65;;
836;SDS011;400;53.550;9.932;2023-12-22T15:26:47;4.53;;;1.85;;
836;SDS011;400;53.550;9.932;2023-12-22T15:29:14;4.95;;;1.98;;
836;SDS011;400;53.550;9.932;2023-12-22T15:31:43;8.80;;;1.70;;
836;SDS011;400;53.550;9.932;2023-12-22T15:34:15;8.00;;;2.08;;
836;SDS011;400;53.550;9.932;2023-12-22T15:36:42;6.15;;;1.60;;
836;SDS011;400;53.550;9.932;2023-12-22T15:39:11;3.17;;;1.70;;
836;SDS011;400;53.550;9.932;2023-12-22T15:41:40;8.05;;;2.22;;
836;SDS011;400;53.550;9.932;2023-12-22T15:44:14;8.00;;;2.42;;
836;SDS011;400;53.550;9.932;2023-12-22T15:46:44;12.80;;;1.98;;
836;SDS011;400;53.550;9.932;2023-12-22T15:49:11;6.50;;;2.60;;
836;SDS011;400;53.550;9.932;2023-12-22T15:51:38;4.55;;;2.95;;